Time;durP1;ratioP1;P1;durP2;ratioP2;P2;SDS_P1;SDS_P2;PMS_P1;PMS_P2;Temp;Humidity;BMP_temperature;BMP_pressure;BME280_temperature;BME280_humidity;BME280_pressure;Samples;Min_cycle;Max_cycle;Signal;HPM_P1;HPM_P2
2022/06/19 00:01:06;;;;;;;4.75;1.85;;;15.00;99.90;;;;;;5032577;28;20069;-66
2022/06/19 00:03:47;;;;;;;2.42;0.75;;;15.00;99.90;;;;;;5002374;28;20034;-66
2022/06/19 00:06:13;;;;;;;2.67;0.60;;;15.00;99.90;;;;;;4983158;28;20151;-66
2022/06/19 00:08:39;;;;;;;6.93;1.25;;;15.00;99.90;;;;;;5000493;28;20502;-65
2022/06/19 00:11:07;;;;;;;3.85;1.35;;;15.00;99.90;;;;;;4992027;28;20132;-66
2022/06/19 00:13:33;;;;;;;2.97;0.57;;;15.00;99.90;;;;;;5007354;28;20429;-65
2022/06/19 00:15:59;;;;;;;4.18;0.90;;;15.00;99.90;;;;;;5003093;28;20116;-66
2022/06/19 00:18:24;;;;;;;5.63;1.05;;;15.00;99.90;;;;;;4995006;28;20111;-66
2022/06/19 00:20:51;;;;;;;8.65;1.40;;;15.00;99.90;;;;;;4996180;28;20033;-66
2022/06/19 00:23:16;;;;;;;5.75;0.80;;;15.00;99.90;;;;;;5007875;28;20124;-66
2022/06/19 00:25:42;;;;;;;8.82;1.00;;;15.10;99.90;;;;;;5010370;28;20440;-66
2022/06/19 00:28:08;;;;;;;6.97;1.30;;;15.00;99.90;;;;;;5006448;28;20042;-66
2022/06/19 00:30:34;;;;;;;5.25;0.80;;;15.00;99.90;;;;;;5004970;28;20052;-65
2022/06/19 00:33:00;;;;;;;2.72;0.73;;;15.00;99.90;;;;;;4997480;28;20168;-66
2022/06/19 00:35:29;;;;;;;4.72;1.02;;;15.00;99.90;;;;;;4987981;28;20118;-65
2022/06/19 00:37:55;;;;;;;3.40;1.05;;;15.00;99.90;;;;;;4999192;28;20030;-65
2022/06/19 00:40:23;;;;;;;4.40;1.00;;;15.00;99.90;;;;;;4998794;28;20406;-66
2022/06/19 00:42:48;;;;;;;10.32;1.40;;;15.00;99.90;;;;;;5001735;28;20186;-67
2022/06/19 00:45:52;;;;;;;4.18;0.73;;;15.00;99.90;;;;;;4998266;28;20263;-66
2022/06/19 00:48:30;;;;;;;8.65;0.95;;;15.00;99.90;;;;;;4959617;28;20107;-66
2022/06/19 00:51:04;;;;;;;7.60;1.00;;;15.10;99.90;;;;;;5001978;28;20049;-66
2022/06/19 00:53:35;;;;;;;3.03;0.63;;;15.10;99.90;;;;;;4996988;28;20112;-65
2022/06/19 00:56:03;;;;;;;4.13;0.70;;;15.10;99.90;;;;;;4997320;28;20627;-65
2022/06/19 00:58:38;;;;;;;4.72;1.27;;;15.10;99.90;;;;;;5007436;28;20402;-66
2022/06/19 01:01:18;;;;;;;8.80;0.80;;;15.10;99.90;;;;;;5009273;28;20037;-65
2022/06/19 01:03:43;;;;;;;5.20;0.90;;;15.10;99.90;;;;;;5006074;28;20502;-66
2022/06/19 01:06:10;;;;;;;3.87;0.70;;;15.10;99.90;;;;;;5004355;28;20077;-66
2022/06/19 01:08:35;;;;;;;;;;;15.10;99.90;;;;;;5003767;28;20042;-66
2022/06/19 01:11:03;;;;;;;4.93;1.05;;;15.10;99.90;;;;;;5005604;28;19924;-65
2022/06/19 01:13:31;;;;;;;6.30;0.77;;;15.10;99.90;;;;;;5006838;28;20486;-65
2022/06/19 01:15:59;;;;;;;6.07;1.30;;;15.10;99.90;;;;;;5006057;28;20067;-66
2022/06/19 01:18:25;;;;;;;6.55;1.30;;;15.10;99.90;;;;;;5005240;28;20304;-66
2022/06/19 01:20:54;;;;;;;;;;;15.10;99.90;;;;;;5004614;28;20434;-66
2022/06/19 01:24:05;;;;;;;6.05;0.95;;;15.20;99.90;;;;;;4999746;28;19995;-67
2022/06/19 01:26:38;;;;;;;6.65;1.00;;;15.10;99.90;;;;;;4981853;28;20606;-65
2022/06/19 01:29:03;;;;;;;9.15;1.15;;;15.20;99.90;;;;;;5001753;28;20375;-66
2022/06/19 01:31:33;;;;;;;7.68;1.10;;;15.20;99.90;;;;;;5003710;28;20064;-65
2022/06/19 01:34:27;;;;;;;8.63;1.42;;;15.10;99.90;;;;;;4990894;28;20522;-66
2022/06/19 01:37:24;;;;;;;5.40;1.50;;;15.20;99.90;;;;;;4992840;28;20052;-66
2022/06/19 01:40:00;;;;;;;6.75;0.90;;;15.20;99.90;;;;;;4997538;28;20102;-65
2022/06/19 01:42:27;;;;;;;3.60;1.23;;;15.20;99.90;;;;;;5000935;28;20077;-66
2022/06/19 01:44:53;;;;;;;4.78;1.20;;;15.20;99.90;;;;;;5001053;28;20053;-66
2022/06/19 01:47:20;;;;;;;11.23;1.55;;;15.10;99.90;;;;;;4997858;28;20037;-66
2022/06/19 01:49:50;;;;;;;3.75;0.85;;;15.10;99.90;;;;;;4995247;28;20514;-66
2022/06/19 01:52:18;;;;;;;10.70;1.92;;;15.10;99.90;;;;;;5000951;28;20463;-67
2022/06/19 01:54:50;;;;;;;8.20;2.05;;;15.10;99.90;;;;;;5002696;28;20038;-67
2022/06/19 01:57:17;;;;;;;6.80;1.10;;;15.10;99.90;;;;;;5009321;28;20033;-66
2022/06/19 01:59:44;;;;;;;7.68;1.23;;;15.10;99.90;;;;;;4998574;28;20033;-66
2022/06/19 02:02:13;;;;;;;4.63;1.80;;;15.10;99.90;;;;;;5008227;28;20192;-66
2022/06/19 02:04:40;;;;;;;7.05;1.25;;;15.10;99.90;;;;;;4990500;28;20046;-66
2022/06/19 02:07:11;;;;;;;8.13;1.30;;;15.10;99.90;;;;;;4986231;28;20068;-65
2022/06/19 02:09:37;;;;;;;11.43;1.42;;;15.00;99.90;;;;;;4998536;28;20073;-66
2022/06/19 02:12:04;;;;;;;8.05;1.23;;;15.10;99.90;;;;;;4998857;28;20038;-66
2022/06/19 02:14:31;;;;;;;6.00;1.23;;;15.10;99.90;;;;;;4999787;28;20033;-67
2022/06/19 02:17:03;;;;;;;6.38;1.13;;;15.00;99.90;;;;;;4999245;28;20042;-67
2022/06/19 02:19:29;;;;;;;7.07;0.88;;;15.00;99.90;;;;;;5026421;28;20165;-66
2022/06/19 02:21:57;;;;;;;6.57;1.30;;;15.00;99.90;;;;;;5005116;28;20517;-66
2022/06/19 02:24:26;;;;;;;7.90;1.42;;;15.00;99.90;;;;;;5003258;28;20066;-66
2022/06/19 02:26:54;;;;;;;7.28;1.42;;;15.00;99.90;;;;;;5002836;28;20410;-66
2022/06/19 02:29:20;;;;;;;6.07;1.63;;;15.00;99.90;;;;;;5005114;28;20399;-66
2022/06/19 02:31:50;;;;;;;5.57;0.93;;;15.00;99.90;;;;;;5009904;28;20478;-66
2022/06/19 02:34:32;;;;;;;7.28;1.30;;;15.00;99.90;;;;;;4993313;28;20076;-66
2022/06/19 02:37:21;;;;;;;5.57;1.40;;;14.90;99.90;;;;;;4992288;28;20034;-66
2022/06/19 02:39:54;;;;;;;7.90;1.10;;;14.90;99.90;;;;;;4992438;28;20557;-67
2022/06/19 02:42:20;;;;;;;5.65;0.93;;;14.90;99.90;;;;;;5003633;28;20288;-66
2022/06/19 02:44:49;;;;;;;4.20;1.75;;;14.90;99.90;;;;;;4998821;28;20443;-66
2022/06/19 02:47:15;;;;;;;7.80;1.20;;;14.90;99.90;;;;;;4979819;28;20065;-66
2022/06/19 02:49:41;;;;;;;4.93;1.05;;;14.90;99.90;;;;;;5008255;28;20042;-67
2022/06/19 02:52:08;;;;;;;;;;;14.90;99.90;;;;;;5005160;28;20042;-66
2022/06/19 02:54:33;;;;;;;5.57;1.25;;;15.00;99.90;;;;;;4992316;28;20239;-66
2022/06/19 02:57:00;;;;;;;4.45;1.08;;;14.90;99.90;;;;;;4993363;28;20069;-67
2022/06/19 02:59:25;;;;;;;7.78;1.50;;;14.90;99.90;;;;;;5001476;28;20293;-66
2022/06/19 03:01:51;;;;;;;11.10;1.23;;;14.90;99.90;;;;;;4982918;28;20462;-66
2022/06/19 03:04:24;;;;;;;5.68;1.20;;;14.90;99.90;;;;;;5000176;28;20273;-65
2022/06/19 03:06:51;;;;;;;5.63;0.90;;;14.90;99.90;;;;;;5001254;28;20038;-66
2022/06/19 03:09:17;;;;;;;9.77;1.10;;;14.90;99.90;;;;;;4994749;28;20092;-67
2022/06/19 03:11:43;;;;;;;6.90;1.23;;;14.90;99.90;;;;;;4991743;28;20045;-66
2022/06/19 03:14:09;;;;;;;6.28;1.35;;;14.90;99.90;;;;;;4994185;28;20042;-66
2022/06/19 03:16:35;;;;;;;4.85;1.05;;;14.90;99.90;;;;;;4990480;28;20073;-65
2022/06/19 03:19:00;;;;;;;6.93;1.08;;;14.90;99.90;;;;;;4987722;28;20449;-67
2022/06/19 03:21:26;;;;;;;16.85;1.23;;;14.90;99.90;;;;;;5003348;28;20681;-66
2022/06/19 03:23:52;;;;;;;10.18;1.25;;;14.90;99.90;;;;;;5001995;28;20037;-66
2022/06/19 03:26:18;;;;;;;4.80;1.17;;;14.90;99.90;;;;;;4996977;28;20080;-65
2022/06/19 03:28:43;;;;;;;5.00;1.33;;;14.90;99.90;;;;;;4992496;28;20320;-65
2022/06/19 03:31:19;;;;;;;10.13;1.10;;;14.90;99.90;;;;;;5023589;23;20051;-68
2022/06/19 03:33:44;;;;;;;8.18;1.73;;;14.80;99.90;;;;;;5019164;28;20037;-69
2022/06/19 03:36:10;;;;;;;6.00;1.05;;;14.70;99.90;;;;;;5002204;28;20060;-68
2022/06/19 03:38:36;;;;;;;9.13;1.03;;;14.60;99.90;;;;;;5003693;28;20234;-69
2022/06/19 03:41:02;;;;;;;9.63;1.70;;;14.60;99.90;;;;;;5005676;28;20371;-69
2022/06/19 03:43:27;;;;;;;4.15;1.00;;;14.60;99.90;;;;;;4993125;28;20056;-69
2022/06/19 03:46:01;;;;;;;12.00;1.70;;;14.50;99.90;;;;;;4999450;28;20037;-69
2022/06/19 03:48:27;;;;;;;4.82;1.15;;;14.40;99.90;;;;;;4994314;28;20394;-70
2022/06/19 03:50:53;;;;;;;4.07;0.90;;;14.40;99.90;;;;;;4999344;28;20102;-70
2022/06/19 03:53:19;;;;;;;12.07;1.13;;;14.40;99.90;;;;;;4995633;28;20050;-70
2022/06/19 03:55:45;;;;;;;5.82;1.20;;;14.30;99.90;;;;;;4997306;28;20073;-69
2022/06/19 03:58:11;;;;;;;;;;;14.30;99.90;;;;;;4987001;28;20038;-69
2022/06/19 04:00:36;;;;;;;7.10;1.13;;;14.30;99.90;;;;;;4991271;28;19936;-70
2022/06/19 04:03:03;;;;;;;6.72;1.17;;;14.20;99.90;;;;;;5005870;28;20477;-69
2022/06/19 04:05:29;;;;;;;6.72;1.42;;;14.20;99.90;;;;;;4997433;28;20417;-70
2022/06/19 04:07:57;;;;;;;5.88;1.08;;;14.10;99.90;;;;;;5002403;28;20052;-69
2022/06/19 04:10:23;;;;;;;6.35;1.10;;;14.10;99.90;;;;;;4997628;28;20183;-69
2022/06/19 04:12:48;;;;;;;6.28;1.00;;;14.00;99.90;;;;;;4992575;28;20045;-69
2022/06/19 04:15:15;;;;;;;9.70;1.40;;;13.90;99.90;;;;;;5001147;28;20568;-69
2022/06/19 04:17:41;;;;;;;9.82;1.20;;;13.90;99.90;;;;;;4992679;28;20266;-69
2022/06/19 04:20:09;;;;;;;4.85;1.00;;;13.80;99.90;;;;;;5003436;28;20449;-70
2022/06/19 04:22:36;;;;;;;6.57;1.40;;;13.70;99.90;;;;;;4999008;28;20077;-69
2022/06/19 04:25:03;;;;;;;5.28;1.13;;;13.60;99.90;;;;;;4998625;28;20037;-70
2022/06/19 04:27:31;;;;;;;6.10;0.88;;;13.60;99.90;;;;;;5003989;28;20394;-69
2022/06/19 04:29:57;;;;;;;7.57;1.02;;;13.50;99.90;;;;;;4984229;28;20133;-69
2022/06/19 04:32:23;;;;;;;5.90;1.23;;;13.40;99.90;;;;;;4999209;28;21075;-69
2022/06/19 04:34:48;;;;;;;8.60;1.40;;;13.40;99.90;;;;;;4990010;28;20297;-69
2022/06/19 04:37:14;;;;;;;8.35;1.25;;;13.40;99.90;;;;;;4996424;28;20067;-70
2022/06/19 04:39:39;;;;;;;3.72;1.10;;;13.40;99.90;;;;;;4994439;28;20619;-69
2022/06/19 04:42:07;;;;;;;2.37;0.50;;;13.40;99.90;;;;;;4998855;28;20443;-69
2022/06/19 04:44:33;;;;;;;6.05;1.20;;;13.40;99.90;;;;;;4997023;28;20085;-69
2022/06/19 04:46:58;;;;;;;4.38;0.90;;;13.40;99.90;;;;;;4997248;28;20434;-69
2022/06/19 04:49:24;;;;;;;6.80;1.23;;;13.40;99.90;;;;;;4992340;28;20514;-71
2022/06/19 04:51:49;;;;;;;7.43;1.10;;;13.40;99.90;;;;;;4986130;28;20042;-69
2022/06/19 04:54:15;;;;;;;6.30;0.73;;;13.40;99.90;;;;;;4998619;28;20304;-69
2022/06/19 04:56:42;;;;;;;10.57;1.17;;;13.40;99.90;;;;;;5006518;28;20915;-69
2022/06/19 04:59:07;;;;;;;;;;;13.40;99.90;;;;;;5005120;28;20304;-69
2022/06/19 05:01:37;;;;;;;4.47;1.27;;;13.40;99.90;;;;;;4985005;28;19971;-69
2022/06/19 05:04:09;;;;;;;4.60;1.42;;;13.30;99.90;;;;;;4995958;28;20066;-70
2022/06/19 05:06:35;;;;;;;6.10;1.17;;;13.30;99.90;;;;;;4994583;28;20125;-69
2022/06/19 05:09:02;;;;;;;4.72;1.42;;;13.30;99.90;;;;;;4992927;28;20112;-70
2022/06/19 05:11:28;;;;;;;;;;;13.30;99.90;;;;;;5003134;28;20046;-69
2022/06/19 05:13:55;;;;;;;6.03;1.13;;;13.30;99.90;;;;;;4998756;28;20009;-68
2022/06/19 05:16:22;;;;;;;4.65;0.77;;;13.30;99.90;;;;;;4999162;28;20674;-69
2022/06/19 05:18:49;;;;;;;3.90;1.02;;;13.20;99.90;;;;;;4996840;28;20129;-69
2022/06/19 05:21:15;;;;;;;4.15;0.80;;;13.30;99.90;;;;;;5006483;28;20099;-69
2022/06/19 05:23:44;;;;;;;2.75;0.82;;;13.20;99.90;;;;;;5000455;28;20049;-69
2022/06/19 05:26:18;;;;;;;4.97;0.90;;;13.20;99.90;;;;;;5007964;28;20440;-69
2022/06/19 05:28:45;;;;;;;8.93;0.80;;;13.20;99.90;;;;;;5006107;28;20565;-69
2022/06/19 05:31:12;;;;;;;3.55;1.05;;;13.20;99.90;;;;;;5003170;28;20583;-69
2022/06/19 05:33:38;;;;;;;9.80;1.33;;;13.10;99.90;;;;;;5003382;28;20332;-69
2022/06/19 05:36:04;;;;;;;6.82;1.20;;;13.10;99.90;;;;;;4989214;28;20046;-70
2022/06/19 05:38:31;;;;;;;6.57;1.05;;;13.10;99.90;;;;;;4994508;28;20425;-70
2022/06/19 05:40:58;;;;;;;5.00;1.13;;;13.10;99.90;;;;;;4996971;28;20042;-69
2022/06/19 05:43:25;;;;;;;2.22;0.77;;;13.10;99.90;;;;;;5007060;28;20659;-69
2022/06/19 05:46:15;;;;;;;4.95;0.90;;;13.10;99.90;;;;;;4996977;28;20038;-70
2022/06/19 05:48:41;;;;;;;10.30;1.17;;;13.10;99.90;;;;;;4990695;28;20095;-69
2022/06/19 05:51:16;;;;;;;9.90;1.02;;;13.20;99.90;;;;;;4999469;28;20054;-69
2022/06/19 05:53:45;;;;;;;6.97;1.60;;;13.10;99.90;;;;;;5004620;28;20037;-70
2022/06/19 05:56:11;;;;;;;5.65;1.08;;;13.10;99.90;;;;;;5007426;28;20045;-69
2022/06/19 05:58:37;;;;;;;7.70;0.90;;;13.10;99.90;;;;;;5002640;28;20030;-72
2022/06/19 06:01:04;;;;;;;3.83;1.00;;;13.20;99.90;;;;;;5003750;28;20109;-69
2022/06/19 06:03:31;;;;;;;8.05;0.95;;;13.10;99.90;;;;;;4999841;28;20044;-69
2022/06/19 06:06:01;;;;;;;3.35;0.93;;;13.10;99.90;;;;;;5004398;28;20377;-69
2022/06/19 06:08:28;;;;;;;5.75;1.02;;;13.10;99.90;;;;;;5002363;28;20234;-69
2022/06/19 06:10:54;;;;;;;6.18;0.65;;;13.10;99.90;;;;;;4997585;28;20096;-69
2022/06/19 06:13:19;;;;;;;4.33;0.80;;;13.10;99.90;;;;;;4985209;28;20045;-69
2022/06/19 06:15:46;;;;;;;4.70;1.10;;;13.20;99.90;;;;;;5006059;28;20041;-70
2022/06/19 06:18:12;;;;;;;4.95;0.80;;;13.20;99.90;;;;;;5012947;28;20425;-69
2022/06/19 06:20:38;;;;;;;6.60;1.25;;;13.20;99.90;;;;;;5003132;28;20125;-69
2022/06/19 06:23:04;;;;;;;4.82;0.90;;;13.20;99.90;;;;;;5018381;28;20121;-70
2022/06/19 06:25:30;;;;;;;7.45;1.02;;;13.30;99.90;;;;;;5000838;28;20045;-70
2022/06/19 06:27:56;;;;;;;7.05;0.70;;;13.20;99.90;;;;;;5011151;28;20777;-70
2022/06/19 06:30:22;;;;;;;7.97;0.80;;;13.30;99.90;;;;;;4996049;28;20596;-70
2022/06/19 06:32:48;;;;;;;2.47;0.70;;;13.30;99.90;;;;;;5003095;28;20167;-70
2022/06/19 06:35:13;;;;;;;1.57;0.70;;;13.40;99.90;;;;;;4987835;28;20041;-70
2022/06/19 06:37:39;;;;;;;5.35;0.68;;;13.30;99.90;;;;;;4988082;28;20875;-69
2022/06/19 06:40:07;;;;;;;7.03;0.90;;;13.40;99.90;;;;;;4994574;28;20532;-69
2022/06/19 06:42:33;;;;;;;2.67;0.70;;;13.40;99.90;;;;;;5002287;28;20038;-69
2022/06/19 06:44:59;;;;;;;;;;;13.50;99.90;;;;;;4981468;28;20076;-69
2022/06/19 06:47:24;;;;;;;3.17;0.70;;;13.50;99.90;;;;;;5002436;28;20331;-69
2022/06/19 06:49:50;;;;;;;7.70;0.77;;;13.50;99.90;;;;;;4996527;28;20546;-69
2022/06/19 06:52:17;;;;;;;4.50;0.80;;;13.60;99.90;;;;;;4989377;28;20053;-69
2022/06/19 06:54:42;;;;;;;;;;;13.60;99.90;;;;;;5005058;28;20463;-70
2022/06/19 06:57:08;;;;;;;3.97;1.10;;;13.70;99.90;;;;;;5003354;28;19924;-70
2022/06/19 06:59:38;;;;;;;4.20;1.00;;;13.70;99.90;;;;;;5000769;28;20506;-69
2022/06/19 07:02:06;;;;;;;4.03;1.05;;;13.70;99.90;;;;;;5007490;28;20077;-69
2022/06/19 07:04:31;;;;;;;7.10;0.63;;;13.70;99.90;;;;;;4995274;28;20485;-70
2022/06/19 07:06:57;;;;;;;7.22;0.80;;;13.70;99.90;;;;;;4994231;28;20129;-70
2022/06/19 07:09:23;;;;;;;5.72;1.08;;;13.80;99.90;;;;;;5006002;28;20129;-70
2022/06/19 07:11:49;;;;;;;2.72;0.57;;;13.80;99.90;;;;;;5000065;28;20438;-70
2022/06/19 07:14:17;;;;;;;6.72;1.77;;;13.80;99.90;;;;;;5002344;28;21447;-70
2022/06/19 07:16:43;;;;;;;4.20;0.50;;;13.80;99.90;;;;;;5003359;28;20374;-70
2022/06/19 07:19:11;;;;;;;5.00;1.00;;;13.80;99.90;;;;;;4994262;28;20466;-70
2022/06/19 07:21:37;;;;;;;3.38;0.80;;;13.90;99.90;;;;;;5003481;28;20121;-70
2022/06/19 07:24:03;;;;;;;;;;;13.80;99.90;;;;;;5002627;28;20034;-69
2022/06/19 07:26:29;;;;;;;7.93;0.93;;;13.90;99.90;;;;;;4996053;28;19952;-70
2022/06/19 07:28:55;;;;;;;;;;;13.80;99.90;;;;;;4984563;28;20080;-70
2022/06/19 07:31:21;;;;;;;5.65;1.52;;;13.90;99.90;;;;;;5002895;28;19960;-70
2022/06/19 07:33:47;;;;;;;5.78;1.23;;;13.80;99.90;;;;;;5000318;28;20088;-71
2022/06/19 07:36:16;;;;;;;5.05;0.70;;;13.80;99.90;;;;;;4986304;28;20129;-71
2022/06/19 07:38:42;;;;;;;3.22;0.73;;;13.80;99.90;;;;;;4994024;28;20040;-70
2022/06/19 07:41:08;;;;;;;3.58;0.50;;;13.80;99.90;;;;;;5000866;28;20042;-70
2022/06/19 07:43:34;;;;;;;6.93;0.90;;;13.90;99.90;;;;;;5000856;28;20125;-70
2022/06/19 07:45:59;;;;;;;3.03;0.80;;;13.90;99.90;;;;;;4999108;28;20113;-70
2022/06/19 07:51:09;;;;;;;3.78;1.00;;;13.90;99.90;;;;;;5000866;28;20187;-70
2022/06/19 07:53:35;;;;;;;3.92;0.80;;;13.80;99.90;;;;;;5001533;28;20117;-70
2022/06/19 07:56:01;;;;;;;7.72;0.93;;;13.90;99.90;;;;;;5000869;28;20037;-70
2022/06/19 07:58:27;;;;;;;3.90;1.15;;;13.90;99.90;;;;;;5001165;28;20181;-71
2022/06/19 08:00:53;;;;;;;2.08;0.60;;;13.90;99.90;;;;;;4994023;28;20075;-70
2022/06/19 08:03:19;;;;;;;3.70;0.80;;;13.90;99.90;;;;;;5005548;28;20042;-71
2022/06/19 08:05:46;;;;;;;3.80;0.90;;;13.90;99.90;;;;;;5014311;28;20042;-70
2022/06/19 08:08:24;;;;;;;6.65;0.98;;;13.90;99.90;;;;;;4995573;28;20096;-70
2022/06/19 08:10:52;;;;;;;2.90;0.63;;;13.90;99.90;;;;;;4997125;28;20526;-70
2022/06/19 08:13:24;;;;;;;6.55;0.80;;;14.00;99.90;;;;;;5024027;28;20046;-70
2022/06/19 08:15:52;;;;;;;7.68;0.80;;;14.00;99.90;;;;;;4998017;28;20041;-70
2022/06/19 08:18:19;;;;;;;2.28;0.88;;;14.10;99.90;;;;;;4995323;28;20042;-69
2022/06/19 08:20:45;;;;;;;3.33;0.63;;;14.10;99.90;;;;;;5000354;28;20034;-70
2022/06/19 08:23:11;;;;;;;5.78;0.70;;;14.10;99.90;;;;;;5002880;28;20298;-70
2022/06/19 08:25:37;;;;;;;3.67;1.15;;;14.10;99.90;;;;;;4983897;28;20467;-70
2022/06/19 08:28:03;;;;;;;;;;;14.10;99.90;;;;;;5001882;28;20045;-70
2022/06/19 08:30:36;;;;;;;4.75;1.00;;;14.10;99.90;;;;;;5000207;28;20170;-70
2022/06/19 08:33:07;;;;;;;8.18;0.77;;;14.10;99.90;;;;;;5001018;28;20041;-69
2022/06/19 08:35:37;;;;;;;2.80;0.75;;;14.10;99.90;;;;;;4991957;28;20054;-69
2022/06/19 08:38:10;;;;;;;4.93;0.60;;;14.10;99.90;;;;;;4993920;28;20030;-69
2022/06/19 08:40:41;;;;;;;4.13;0.52;;;14.10;99.90;;;;;;4998182;28;20038;-69
2022/06/19 08:43:41;;;;;;;4.20;0.82;;;14.10;99.90;;;;;;5006435;28;20498;-70
2022/06/19 08:46:16;;;;;;;6.95;0.88;;;14.20;99.90;;;;;;4997097;28;20149;-70
2022/06/19 08:48:50;;;;;;;3.55;1.10;;;14.20;99.90;;;;;;4999120;28;20101;-69
2022/06/19 08:51:35;;;;;;;1.95;0.50;;;14.20;99.90;;;;;;4996150;28;20168;-69
2022/06/19 08:54:19;;;;;;;2.63;0.70;;;14.20;99.90;;;;;;4988710;28;20045;-69
2022/06/19 08:57:06;;;;;;;4.53;0.80;;;14.20;99.90;;;;;;5019268;28;20613;-69
2022/06/19 08:59:52;;;;;;;3.03;0.73;;;14.30;99.90;;;;;;5001820;28;20164;-70
2022/06/19 09:02:52;;;;;;;2.13;0.70;;;14.40;99.90;;;;;;5005758;28;20046;-69
2022/06/19 09:05:46;;;;;;;2.50;0.65;;;14.50;99.90;;;;;;4992808;28;20038;-70
2022/06/19 09:08:28;;;;;;;2.42;0.60;;;14.60;99.90;;;;;;4994303;28;20105;-69
2022/06/19 09:11:16;;;;;;;2.05;0.60;;;14.60;99.90;;;;;;5000386;28;20056;-70
2022/06/19 09:13:57;;;;;;;5.70;1.30;;;14.60;99.90;;;;;;4999082;28;20489;-70
2022/06/19 09:16:39;;;;;;;3.35;0.73;;;14.60;99.90;;;;;;5007007;28;20054;-71
2022/06/19 09:19:21;;;;;;;4.28;0.75;;;14.60;99.90;;;;;;4995410;28;20029;-69
2022/06/19 09:22:04;;;;;;;3.45;0.63;;;14.70;99.90;;;;;;4997186;28;20442;-70
2022/06/19 09:25:02;;;;;;;6.05;0.60;;;14.70;99.90;;;;;;5007076;28;20037;-71
2022/06/19 09:27:34;;;;;;;4.15;0.47;;;14.80;99.90;;;;;;4993130;28;20049;-71
2022/06/19 09:30:26;;;;;;;2.70;0.52;;;14.80;99.90;;;;;;5013389;28;20133;-71
2022/06/19 09:32:58;;;;;;;4.47;0.65;;;14.80;99.90;;;;;;5034370;23;20033;-73
2022/06/19 09:35:54;;;;;;;2.90;0.77;;;14.80;99.90;;;;;;5014709;28;20091;-75
2022/06/19 09:38:47;;;;;;;2.63;0.63;;;14.80;99.90;;;;;;5006847;28;20084;-76
2022/06/19 09:41:29;;;;;;;2.80;0.98;;;14.90;99.90;;;;;;4966684;28;20058;-74
2022/06/19 09:44:32;;;;;;;3.58;0.90;;;14.90;99.90;;;;;;5002590;28;20498;-76
2022/06/19 09:47:22;;;;;;;1.00;0.40;;;15.00;99.90;;;;;;4919533;28;20418;-74
2022/06/19 09:50:04;;;;;;;3.47;0.50;;;15.10;99.90;;;;;;5003308;28;20581;-75
2022/06/19 09:52:37;;;;;;;3.92;0.60;;;15.10;99.90;;;;;;5007612;28;20044;-72
2022/06/19 09:55:16;;;;;;;4.40;0.70;;;15.20;99.90;;;;;;5007995;28;20128;-75
2022/06/19 09:57:49;;;;;;;4.22;0.60;;;15.20;99.90;;;;;;5040985;28;20073;-73
2022/06/19 10:00:23;;;;;;;2.55;0.60;;;15.20;99.90;;;;;;5005479;28;20050;-72
2022/06/19 10:03:02;;;;;;;3.97;0.73;;;15.40;99.90;;;;;;5040354;28;20034;-71
2022/06/19 10:05:41;;;;;;;1.50;0.47;;;15.40;99.90;;;;;;4996015;28;20040;-72
2022/06/19 10:08:14;;;;;;;4.82;0.65;;;15.50;99.90;;;;;;5004453;28;20042;-72
2022/06/19 10:11:20;;;;;;;7.45;0.80;;;15.60;99.90;;;;;;5004788;28;20061;-72
2022/06/19 10:13:54;;;;;;;1.52;0.50;;;15.60;99.90;;;;;;4932246;29;20054;-72
2022/06/19 10:16:54;;;;;;;4.20;0.70;;;15.60;99.90;;;;;;4946396;28;20051;-72
2022/06/19 10:19:25;;;;;;;1.45;0.50;;;15.70;99.90;;;;;;4995086;28;20127;-72
2022/06/19 10:22:14;;;;;;;1.85;0.30;;;15.70;99.90;;;;;;5008330;28;20041;-72
2022/06/19 10:24:58;;;;;;;1.48;0.30;;;15.80;99.90;;;;;;5003114;28;20046;-72
2022/06/19 10:27:42;;;;;;;1.42;0.30;;;16.00;99.90;;;;;;5006386;28;20780;-72
2022/06/19 10:30:16;;;;;;;2.58;0.65;;;16.20;99.90;;;;;;5004601;28;20125;-72
2022/06/19 10:32:47;;;;;;;2.63;0.70;;;16.40;99.90;;;;;;4986547;28;20077;-72
2022/06/19 10:35:25;;;;;;;4.30;0.40;;;16.50;99.90;;;;;;4999909;28;20122;-72
2022/06/19 10:38:12;;;;;;;1.10;0.25;;;16.70;99.90;;;;;;5011633;28;20100;-72
2022/06/19 10:40:55;;;;;;;3.25;0.28;;;16.70;99.90;;;;;;4984895;28;20042;-77
2022/06/19 10:43:51;;;;;;;3.42;0.45;;;16.70;99.90;;;;;;4988891;28;20053;-76
2022/06/19 10:46:17;;;;;;;1.05;0.55;;;16.70;99.90;;;;;;4998012;28;20045;-72
2022/06/19 10:49:31;;;;;;;2.42;0.60;;;16.70;99.90;;;;;;4999983;28;20034;-73
2022/06/19 10:52:08;;;;;;;1.73;0.40;;;16.60;99.90;;;;;;5002736;28;20347;-73
2022/06/19 10:54:46;;;;;;;2.35;0.60;;;16.50;99.90;;;;;;5002428;28;20533;-75
2022/06/19 10:57:20;;;;;;;2.10;0.52;;;16.50;99.90;;;;;;5013646;28;20064;-73
2022/06/19 10:59:47;;;;;;;2.17;0.70;;;16.40;99.90;;;;;;5008317;28;20037;-73
2022/06/19 11:05:37;;;;;;;2.75;0.88;;;16.40;99.90;;;;;;5004386;28;20050;-73
2022/06/19 11:08:03;;;;;;;;;;;16.40;99.90;;;;;;5004469;28;20045;-75
2022/06/19 11:10:53;;;;;;;2.58;1.38;;;16.30;99.90;;;;;;5031704;28;20543;-73
2022/06/19 11:13:19;;;;;;;4.28;0.60;;;16.30;99.90;;;;;;5004241;28;20073;-74
2022/06/19 11:16:04;;;;;;;2.08;0.68;;;16.30;99.90;;;;;;4995116;28;20046;-73
2022/06/19 11:18:45;;;;;;;2.92;0.60;;;16.30;99.90;;;;;;5004432;28;20249;-73
2022/06/19 11:21:14;;;;;;;2.03;0.40;;;16.30;99.90;;;;;;5002497;28;20124;-71
2022/06/19 11:23:49;;;;;;;1.92;0.90;;;16.30;99.90;;;;;;5002073;28;20046;-72
2022/06/19 11:26:41;;;;;;;2.50;0.55;;;16.30;99.90;;;;;;5018430;28;20053;-72
2022/06/19 11:29:19;;;;;;;3.42;0.73;;;16.30;99.90;;;;;;4999631;28;20469;-76
2022/06/19 11:32:13;;;;;;;7.90;0.73;;;16.30;99.90;;;;;;5002648;28;20054;-75
2022/06/19 11:34:45;;;;;;;2.33;0.57;;;16.20;99.90;;;;;;5008235;28;20064;-74
2022/06/19 11:37:13;;;;;;;4.85;0.80;;;16.30;99.90;;;;;;5026780;28;20045;-76
2022/06/19 11:40:16;;;;;;;2.35;0.68;;;16.20;99.90;;;;;;4993571;28;20050;-73
2022/06/19 11:42:48;;;;;;;2.53;0.50;;;16.20;99.90;;;;;;4988433;28;20053;-74
2022/06/19 11:45:14;;;;;;;7.15;1.13;;;16.10;99.90;;;;;;5004880;28;20149;-75
2022/06/19 11:47:55;;;;;;;1.80;0.70;;;16.10;99.90;;;;;;5016148;28;20061;-78
2022/06/19 11:50:25;;;;;;;1.38;0.40;;;16.10;99.90;;;;;;4987824;28;20747;-75
2022/06/19 11:53:11;;;;;;;3.40;0.60;;;16.00;99.90;;;;;;5001766;28;20042;-71
2022/06/19 11:55:42;;;;;;;5.18;0.60;;;16.00;99.90;;;;;;5003033;28;20119;-72
2022/06/19 11:58:17;;;;;;;3.20;0.50;;;16.00;99.90;;;;;;5016095;28;20129;-71
2022/06/19 12:00:45;;;;;;;1.88;0.60;;;16.00;99.90;;;;;;4997099;28;20042;-75
2022/06/19 12:03:27;;;;;;;1.58;0.88;;;16.00;99.90;;;;;;4999408;28;20035;-71
2022/06/19 12:05:58;;;;;;;2.22;0.60;;;16.00;99.90;;;;;;4991532;28;20088;-72
2022/06/19 12:08:28;;;;;;;4.55;0.70;;;16.00;99.90;;;;;;5003661;28;20048;-72
2022/06/19 12:10:57;;;;;;;1.38;0.43;;;16.10;99.90;;;;;;4993593;28;20049;-72
2022/06/19 12:13:37;;;;;;;3.67;0.80;;;16.20;99.90;;;;;;5005376;28;20037;-72
2022/06/19 12:16:23;;;;;;;3.17;0.60;;;16.30;99.90;;;;;;5003176;28;20116;-71
2022/06/19 12:18:50;;;;;;;4.40;0.52;;;16.50;99.90;;;;;;4999653;28;20033;-72
2022/06/19 12:21:21;;;;;;;;;;;16.60;99.90;;;;;;4997534;28;20077;-72
2022/06/19 12:24:01;;;;;;;3.70;0.95;;;16.80;99.90;;;;;;5010837;28;20300;-72
2022/06/19 12:26:42;;;;;;;5.20;1.80;;;16.90;99.90;;;;;;5007386;28;20038;-71
2022/06/19 12:29:39;;;;;;;2.13;0.75;;;17.10;99.90;;;;;;5009271;28;20550;-72
2022/06/19 12:32:21;;;;;;;7.60;0.82;;;17.20;99.90;;;;;;5001312;28;20033;-72
2022/06/19 12:34:50;;;;;;;3.85;0.80;;;17.40;99.90;;;;;;5001340;28;20049;-72
2022/06/19 12:37:23;;;;;;;3.60;0.68;;;17.50;99.90;;;;;;5000498;28;20544;-71
2022/06/19 12:39:48;;;;;;;1.30;0.60;;;17.60;99.90;;;;;;4994960;28;20050;-72
2022/06/19 12:42:25;;;;;;;0.73;0.32;;;17.70;99.90;;;;;;5008504;28;20069;-72
2022/06/19 12:45:02;;;;;;;2.95;0.65;;;17.80;99.90;;;;;;5008455;28;20038;-72
2022/06/19 12:47:50;;;;;;;;;;;17.90;99.90;;;;;;5005997;28;20491;-72
2022/06/19 12:50:21;;;;;;;1.48;0.80;;;18.00;99.90;;;;;;5005226;28;19922;-72
2022/06/19 12:53:17;;;;;;;3.53;0.75;;;17.90;99.90;;;;;;5008883;28;20140;-72
2022/06/19 12:56:08;;;;;;;4.10;1.30;;;17.90;99.90;;;;;;4984986;28;20269;-71
2022/06/19 12:58:55;;;;;;;4.15;0.77;;;17.90;99.90;;;;;;5008653;28;20131;-71
2022/06/19 13:01:39;;;;;;;;;;;18.00;99.90;;;;;;5000571;28;20407;-71
2022/06/19 13:04:08;;;;;;;2.35;0.40;;;18.00;99.90;;;;;;5024336;28;19928;-71
2022/06/19 13:07:03;;;;;;;3.05;0.63;;;18.10;99.90;;;;;;4999699;28;20498;-72
2022/06/19 13:09:41;;;;;;;4.75;0.65;;;18.30;99.90;;;;;;5024161;28;20050;-72
2022/06/19 13:12:26;;;;;;;4.40;0.80;;;18.50;99.90;;;;;;5001285;28;20050;-72
2022/06/19 13:15:18;;;;;;;3.35;0.70;;;18.60;99.90;;;;;;5006305;28;20325;-72
2022/06/19 13:17:51;;;;;;;1.40;0.40;;;18.80;99.90;;;;;;4995974;28;20507;-72
2022/06/19 13:20:31;;;;;;;2.80;0.45;;;19.00;99.90;;;;;;5008167;28;20077;-72
2022/06/19 13:23:16;;;;;;;4.03;0.88;;;19.20;99.90;;;;;;5006371;28;20030;-72